Terminal Aerodrome Forecast
Issued by NWS Jacksonville, FL

Home | Current Version | Previous Version | Text Only | Print | Product List | Glossary On
Versions: 1 2 3 4 5 6 7 8 9 10 11 12 13 14 15 16 17 18 19 20 21 22 23 24 25
000
FTUS42 KJAX 181316 AAA
TAFSSI
TAF AMD
KSSI 181316Z 1813/1912 15004KT P6SM BKN020
      TEMPO 1813/1815 SCT020
     FM181600 18005KT P6SM SCT025 BKN040
     FM181800 15008KT P6SM VCSH SCT025 BKN040
     FM190600 VRB03KT P6SM OVC050 PROB30 1906/1912 P6SM -RA OVC050=

USA.gov is the U.S. government's official web portal to all federal, state and local government web resources and services.